createdAt,value
2018-03-23T00:01:31.342Z,45.00
2018-03-23T00:04:04.841Z,42.10
2018-03-23T00:06:32.282Z,43.22
2018-03-23T00:08:59.754Z,43.78
2018-03-23T00:11:27.208Z,45.25
2018-03-23T00:13:54.667Z,53.10
2018-03-23T00:16:22.122Z,56.97
2018-03-23T00:18:49.886Z,46.05
2018-03-23T00:21:17.334Z,48.38
2018-03-23T00:23:45.469Z,48.33
2018-03-23T00:26:27.296Z,48.22
2018-03-23T00:28:54.766Z,57.60
2018-03-23T00:31:22.217Z,55.08
2018-03-23T00:33:49.684Z,45.00
2018-03-23T00:36:17.129Z,53.10
2018-03-23T00:38:44.580Z,51.30
2018-03-23T00:41:12.221Z,54.95
2018-03-23T00:43:40.434Z,53.17
2018-03-23T00:46:08.649Z,54.80
2018-03-23T00:48:36.124Z,55.38
2018-03-23T00:51:04.343Z,61.83
2018-03-23T00:53:33.712Z,52.35
2018-03-23T00:56:01.946Z,56.75
2018-03-23T00:58:29.485Z,54.88
2018-03-23T01:00:57.720Z,58.28
2018-03-23T01:03:25.937Z,60.80
2018-03-23T01:05:53.407Z,55.92
2018-03-23T01:08:35.900Z,68.22
2018-03-23T01:11:03.357Z,56.97
2018-03-23T01:13:30.928Z,71.07
2018-03-23T01:15:58.381Z,70.20
2018-03-23T01:18:25.866Z,72.82
2018-03-23T01:20:57.078Z,68.40
2018-03-23T01:23:24.572Z,73.80
2018-03-23T01:25:52.008Z,69.85
2018-03-23T01:28:19.448Z,80.85
2018-03-23T01:30:50.813Z,70.72
2018-03-23T01:33:18.282Z,83.28
2018-03-23T01:35:45.746Z,72.07
2018-03-23T01:38:13.201Z,82.85
2018-03-23T01:40:40.668Z,88.05
2018-03-23T01:43:08.121Z,78.37
2018-03-23T01:45:35.565Z,89.03
2018-03-23T01:48:03.157Z,76.50
2018-03-23T01:50:30.610Z,89.93
2018-03-23T01:52:58.070Z,89.57
2018-03-23T01:55:25.516Z,91.95
2018-03-23T01:57:52.984Z,89.25
2018-03-23T02:00:20.441Z,84.55
2018-03-23T02:02:47.904Z,88.50
2018-03-23T02:05:16.125Z,87.82
2018-03-23T02:07:43.911Z,98.75
2018-03-23T02:10:11.357Z,81.80
2018-03-23T02:12:38.809Z,93.00
2018-03-23T02:15:06.297Z,100.85
2018-03-23T02:17:33.754Z,111.22
2018-03-23T02:20:01.252Z,85.93
2018-03-23T02:22:29.645Z,91.90
2018-03-23T02:24:57.089Z,89.85
2018-03-23T02:27:25.326Z,106.43
2018-03-23T02:29:52.768Z,106.70
2018-03-23T02:32:20.278Z,122.40
2018-03-23T02:34:47.722Z,102.00
2018-03-23T02:37:16.024Z,128.10
2018-03-23T02:42:40.008Z,110.95
2018-03-23T02:45:13.674Z,98.50
2018-03-23T02:47:41.277Z,125.70
2018-03-23T02:50:08.729Z,143.90
2018-03-23T02:52:36.949Z,104.93
2018-03-23T02:55:04.424Z,97.55
2018-03-23T02:57:31.870Z,111.10
2018-03-23T02:59:59.330Z,85.47
2018-03-23T03:02:26.967Z,119.03
2018-03-23T03:04:54.410Z,94.40
2018-03-23T03:07:21.852Z,80.00
2018-03-23T03:09:50.160Z,131.37
2018-03-23T03:12:18.365Z,80.62
2018-03-23T03:14:45.832Z,85.30
2018-03-23T03:17:13.289Z,98.35
2018-03-23T03:19:41.133Z,80.05
2018-03-23T03:22:08.578Z,85.22
2018-03-23T03:24:36.026Z,100.07
2018-03-23T03:27:03.489Z,83.75
2018-03-23T03:29:30.945Z,120.28
2018-03-23T03:31:59.170Z,75.25
2018-03-23T03:34:30.812Z,77.93
2018-03-23T03:36:58.282Z,82.30
2018-03-23T03:39:25.876Z,63.92
2018-03-23T03:41:58.321Z,74.00
2018-03-23T03:44:25.801Z,72.75
2018-03-23T03:46:54.014Z,80.00
2018-03-23T03:49:21.755Z,90.70
2018-03-23T03:51:49.277Z,89.03
2018-03-23T03:54:16.724Z,77.35
2018-03-23T03:56:44.163Z,81.78
2018-03-23T03:59:11.704Z,172.07
2018-03-23T04:01:39.140Z,116.40
2018-03-23T04:04:06.576Z,118.68
2018-03-23T04:06:34.821Z,79.62
2018-03-23T04:09:02.257Z,77.53
2018-03-23T04:11:31.444Z,78.75
2018-03-23T04:13:59.048Z,88.12
2018-03-23T04:16:26.912Z,133.37
2018-03-23T04:18:54.369Z,125.97
2018-03-23T04:21:26.913Z,123.03
2018-03-23T04:24:03.309Z,96.25
2018-03-23T04:26:30.773Z,84.68
2018-03-23T04:28:58.260Z,79.68
2018-03-23T04:31:25.700Z,83.55
2018-03-23T04:33:53.150Z,137.35
2018-03-23T04:36:22.244Z,473.90
2018-03-23T04:38:49.693Z,71.32
2018-03-23T04:41:17.196Z,124.45
2018-03-23T04:43:44.640Z,59.80
2018-03-23T04:46:12.854Z,80.95
2018-03-23T04:48:40.321Z,75.00
2018-03-23T04:51:07.771Z,94.75
2018-03-23T04:53:36.575Z,128.50
2018-03-23T04:56:04.024Z,69.05
2018-03-23T04:58:31.472Z,271.67
2018-03-23T05:00:58.938Z,94.70
2018-03-23T05:03:26.408Z,205.82
2018-03-23T05:05:53.889Z,154.73
2018-03-23T05:08:21.508Z,325.38
2018-03-23T05:10:49.289Z,256.45
2018-03-23T05:13:16.740Z,156.05
2018-03-23T05:15:44.260Z,380.12
2018-03-23T05:18:12.552Z,130.85
2018-03-23T05:20:40.009Z,174.70
2018-03-23T05:23:07.640Z,113.75
2018-03-23T05:25:35.941Z,81.93
2018-03-23T05:28:04.140Z,141.45
2018-03-23T05:30:31.904Z,109.50
2018-03-23T05:33:00.527Z,103.90
2018-03-23T05:35:27.973Z,118.15
2018-03-23T05:37:55.836Z,101.00
2018-03-23T05:40:24.184Z,108.05
2018-03-23T05:42:51.645Z,114.95
2018-03-23T05:45:19.108Z,121.13
2018-03-23T05:47:46.573Z,106.25
2018-03-23T05:50:14.181Z,130.55
2018-03-23T05:52:42.393Z,165.50
2018-03-23T05:55:09.876Z,120.82
2018-03-23T05:57:37.325Z,91.82
2018-03-23T06:00:04.769Z,89.80
2018-03-23T06:02:32.374Z,111.15
2018-03-23T06:04:59.817Z,91.80
2018-03-23T06:07:27.265Z,91.53
2018-03-23T06:09:54.836Z,97.70
2018-03-23T06:12:22.280Z,86.03
2018-03-23T06:14:49.769Z,86.75
2018-03-23T06:17:17.219Z,92.90
2018-03-23T06:19:44.669Z,84.53
2018-03-23T06:22:12.192Z,78.40
2018-03-23T06:24:39.670Z,80.00
2018-03-23T06:27:07.113Z,83.87
2018-03-23T06:29:34.630Z,75.93
2018-03-23T06:32:02.852Z,83.10
2018-03-23T06:34:30.301Z,81.03
2018-03-23T06:36:57.768Z,77.45
2018-03-23T06:39:25.225Z,89.87
2018-03-23T06:41:52.783Z,83.30
2018-03-23T06:44:20.220Z,88.50
2018-03-23T06:46:47.693Z,86.93
2018-03-23T06:49:15.159Z,80.35
2018-03-23T06:51:42.608Z,78.28
2018-03-23T06:54:10.139Z,70.05
2018-03-23T06:56:37.624Z,74.28
2018-03-23T06:59:05.094Z,70.32
2018-03-23T07:01:32.628Z,71.32
2018-03-23T07:04:00.097Z,73.32
2018-03-23T07:06:27.553Z,77.20
2018-03-23T07:08:55.065Z,68.07
2018-03-23T07:11:22.499Z,70.57
2018-03-23T07:13:49.984Z,69.15
2018-03-23T07:16:18.203Z,66.00
2018-03-23T07:18:45.668Z,97.15
2018-03-23T07:21:13.153Z,69.05
2018-03-23T07:23:40.728Z,76.53
2018-03-23T07:26:08.161Z,61.90
2018-03-23T07:28:35.627Z,71.85
2018-03-23T07:31:03.071Z,64.22
2018-03-23T07:33:30.544Z,60.78
2018-03-23T07:35:58.004Z,63.78
2018-03-23T07:38:25.629Z,65.70
2018-03-23T07:40:53.066Z,63.65
2018-03-23T07:43:20.501Z,61.28
2018-03-23T07:45:48.917Z,61.63
2018-03-23T07:48:16.418Z,60.85
2018-03-23T07:50:43.861Z,62.92
2018-03-23T07:53:11.325Z,63.00
2018-03-23T07:55:38.776Z,61.50
2018-03-23T07:58:06.407Z,62.67
2018-03-23T08:00:33.840Z,59.28
2018-03-23T08:03:02.153Z,52.45
2018-03-23T08:05:29.588Z,63.95
2018-03-23T08:07:57.024Z,50.12
2018-03-23T08:10:25.376Z,58.25
2018-03-23T08:12:52.837Z,53.60
2018-03-23T08:15:20.283Z,53.28
2018-03-23T08:17:47.769Z,56.20
2018-03-23T08:20:15.252Z,57.38
2018-03-23T08:22:42.717Z,59.65
2018-03-23T08:25:10.336Z,58.13
2018-03-23T08:27:37.777Z,59.60
2018-03-23T08:30:05.240Z,54.13
2018-03-23T08:32:32.704Z,58.95
2018-03-23T08:35:00.185Z,52.15
2018-03-23T08:37:31.572Z,50.80
2018-03-23T08:40:00.493Z,49.92
2018-03-23T08:42:27.953Z,50.63
2018-03-23T08:44:55.423Z,51.03
2018-03-23T08:47:22.869Z,57.28
2018-03-23T08:49:50.336Z,48.13
2018-03-23T08:52:17.796Z,47.70
2018-03-23T08:54:45.236Z,49.58
2018-03-23T08:57:12.766Z,48.25
2018-03-23T08:59:40.717Z,51.13
2018-03-23T09:02:08.171Z,46.08
2018-03-23T09:04:36.404Z,45.90
2018-03-23T09:07:03.876Z,48.85
2018-03-23T09:09:31.439Z,49.08
2018-03-23T09:11:58.872Z,43.08
2018-03-23T09:14:26.315Z,47.15
2018-03-23T09:16:53.780Z,42.70
2018-03-23T09:19:21.235Z,44.05
2018-03-23T09:21:48.735Z,41.58
2018-03-23T09:24:16.154Z,40.55
2018-03-23T09:26:43.806Z,41.50
2018-03-23T09:29:13.132Z,40.22
2018-03-23T09:31:40.598Z,40.80
2018-03-23T09:34:08.076Z,38.75
2018-03-23T09:36:35.524Z,43.53
2018-03-23T09:39:02.977Z,45.83
2018-03-23T09:41:30.648Z,42.15
2018-03-23T09:43:58.123Z,44.20
2018-03-23T09:46:26.346Z,43.03
2018-03-23T09:48:53.816Z,44.80
2018-03-23T09:51:21.298Z,37.90
2018-03-23T09:53:48.775Z,49.35
2018-03-23T09:56:16.223Z,41.83
2018-03-23T09:58:43.672Z,46.50
2018-03-23T10:01:12.742Z,49.22
2018-03-23T10:03:40.243Z,51.33
2018-03-23T10:06:07.738Z,45.72
2018-03-23T10:08:35.185Z,45.80
2018-03-23T10:11:02.646Z,46.75
2018-03-23T10:13:30.108Z,42.62
2018-03-23T10:15:57.548Z,44.35
2018-03-23T10:18:25.140Z,42.72
2018-03-23T10:20:52.707Z,44.30
2018-03-23T10:23:20.189Z,41.15
2018-03-23T10:25:48.384Z,47.05
2018-03-23T10:28:15.826Z,48.78
2018-03-23T10:30:44.064Z,44.97
2018-03-23T10:33:11.504Z,50.63
2018-03-23T10:35:38.957Z,53.38
2018-03-23T10:38:06.552Z,47.70
2018-03-23T10:40:33.996Z,52.17
2018-03-23T10:43:01.456Z,48.42
2018-03-23T10:45:28.920Z,45.55
2018-03-23T10:47:56.397Z,44.03
2018-03-23T10:50:23.836Z,38.03
2018-03-23T10:52:51.335Z,39.90
2018-03-23T10:55:19.542Z,40.17
2018-03-23T10:57:47.537Z,43.90
2018-03-23T11:00:14.989Z,38.20
2018-03-23T11:02:48.205Z,37.95
2018-03-23T11:05:15.664Z,39.08
2018-03-23T11:07:43.129Z,38.03
2018-03-23T11:10:11.353Z,42.03
2018-03-23T11:12:38.828Z,40.63
2018-03-23T11:15:06.282Z,42.67
2018-03-23T11:17:33.904Z,41.70
2018-03-23T11:20:01.560Z,44.90
2018-03-23T11:22:29.011Z,44.97
2018-03-23T11:24:56.472Z,43.72
2018-03-23T11:27:23.909Z,40.22
2018-03-23T11:29:51.448Z,40.12
2018-03-23T11:32:18.901Z,37.78
2018-03-23T11:34:46.352Z,37.53
2018-03-23T11:37:16.481Z,38.00
2018-03-23T11:51:06.156Z,35.13
2018-03-23T11:53:33.691Z,32.80
2018-03-23T11:56:01.139Z,33.03
2018-03-23T11:58:32.812Z,33.53
2018-03-23T12:01:00.248Z,36.35
2018-03-23T12:03:27.698Z,38.10
2018-03-23T12:05:55.218Z,38.33
2018-03-23T12:08:23.429Z,39.78
2018-03-23T12:10:50.889Z,42.53
2018-03-23T12:13:18.488Z,37.40
2018-03-23T12:15:45.932Z,49.80
2018-03-23T12:18:13.397Z,44.95
2018-03-23T12:20:41.090Z,43.28
2018-03-23T12:23:09.352Z,35.05
2018-03-23T12:25:36.809Z,37.15
2018-03-23T12:28:04.320Z,33.85
2018-03-23T12:30:31.779Z,41.88
2018-03-23T12:32:59.298Z,38.72
2018-03-23T12:35:27.526Z,36.97
2018-03-23T12:37:55.176Z,30.23
2018-03-23T12:40:22.612Z,32.00
2018-03-23T12:42:50.225Z,32.97
2018-03-23T12:45:17.667Z,30.25
2018-03-23T12:47:45.885Z,32.25
2018-03-23T12:50:13.372Z,37.25
2018-03-23T12:52:40.871Z,31.92
2018-03-23T12:55:08.309Z,32.92
2018-03-23T12:57:36.674Z,30.42
2018-03-23T13:00:04.235Z,30.65
2018-03-23T13:02:31.737Z,30.70
2018-03-23T13:04:59.173Z,31.92
2018-03-23T13:07:26.640Z,29.10
2018-03-23T13:09:54.077Z,33.00
2018-03-23T13:12:21.543Z,31.85
2018-03-23T13:14:48.997Z,34.67
2018-03-23T13:17:16.634Z,27.13
2018-03-23T13:19:44.065Z,29.77
2018-03-23T13:22:12.352Z,31.25
2018-03-23T13:24:39.818Z,30.92
2018-03-23T13:27:07.252Z,32.65
2018-03-23T13:29:36.371Z,32.00
2018-03-23T13:32:03.809Z,30.27
2018-03-23T13:34:32.175Z,33.22
2018-03-23T13:37:02.401Z,34.67
2018-03-23T13:39:30.672Z,29.52
2018-03-23T13:42:00.029Z,32.55
2018-03-23T13:44:27.499Z,38.75
2018-03-23T13:46:54.936Z,36.85
2018-03-23T13:49:22.460Z,34.28
2018-03-23T13:51:49.949Z,28.65
2018-03-23T13:54:17.392Z,32.08
2018-03-23T13:56:44.829Z,35.60
2018-03-23T13:59:18.089Z,35.60
2018-03-23T14:01:45.524Z,33.30
2018-03-23T14:04:13.188Z,30.70
2018-03-23T14:06:42.530Z,35.33
2018-03-23T14:09:10.962Z,32.03
2018-03-23T14:11:38.751Z,29.98
2018-03-23T14:14:06.672Z,31.55
2018-03-23T14:16:34.497Z,32.30
2018-03-23T14:19:03.037Z,31.12
2018-03-23T14:21:30.536Z,33.30
2018-03-23T14:23:57.989Z,36.70
2018-03-23T14:26:25.449Z,33.92
2018-03-23T14:28:52.933Z,32.83
2018-03-23T14:31:20.364Z,31.58
2018-03-23T14:33:47.817Z,33.20
2018-03-23T14:36:15.256Z,30.70
2018-03-23T14:38:42.889Z,33.75
2018-03-23T14:41:11.093Z,31.52
2018-03-23T14:43:38.598Z,31.30
2018-03-23T14:46:06.052Z,32.08
2018-03-23T14:48:33.500Z,31.77
2018-03-23T14:51:01.056Z,29.27
2018-03-23T14:53:28.508Z,31.25
2018-03-23T14:55:59.650Z,31.52
2018-03-23T14:58:27.392Z,27.65
2018-03-23T15:00:54.849Z,25.80
2018-03-23T15:03:22.287Z,27.80
2018-03-23T15:05:49.760Z,26.87
2018-03-23T15:08:17.192Z,29.60
2018-03-23T15:10:45.390Z,27.30
2018-03-23T15:13:12.980Z,23.20
2018-03-23T15:15:40.439Z,30.08
2018-03-23T15:18:07.904Z,24.95
2018-03-23T15:20:35.344Z,24.35
2018-03-23T15:23:02.805Z,25.20
2018-03-23T15:25:30.242Z,27.35
2018-03-23T15:27:57.868Z,22.25
2018-03-23T15:30:25.304Z,19.08
2018-03-23T15:32:52.772Z,19.75
2018-03-23T15:35:21.105Z,17.80
2018-03-23T15:37:48.569Z,15.73
2018-03-23T15:40:15.996Z,43.13
2018-03-23T15:42:43.462Z,16.83
2018-03-23T15:45:10.915Z,20.10
2018-03-23T15:47:39.452Z,24.85
2018-03-23T15:50:06.898Z,15.52
2018-03-23T15:52:34.367Z,13.57
2018-03-23T15:55:01.813Z,13.88
2018-03-23T15:57:29.269Z,12.98
2018-03-23T15:59:56.700Z,12.10
2018-03-23T16:02:24.254Z,11.02
2018-03-23T16:04:51.862Z,10.10
2018-03-23T16:07:20.298Z,12.70
2018-03-23T16:09:47.801Z,12.07
2018-03-23T16:12:15.261Z,12.77
2018-03-23T16:14:42.713Z,10.15
2018-03-23T16:17:10.160Z,12.20
2018-03-23T16:19:37.668Z,9.10
2018-03-23T16:22:05.178Z,10.10
2018-03-23T16:24:32.669Z,10.88
2018-03-23T16:27:00.873Z,12.73
2018-03-23T16:29:28.364Z,10.02
2018-03-23T16:31:56.744Z,10.98
2018-03-23T16:34:24.140Z,9.25
2018-03-23T16:36:52.386Z,11.73
2018-03-23T16:39:20.844Z,10.27
2018-03-23T16:41:48.287Z,10.70
2018-03-23T16:44:17.075Z,10.38
2018-03-23T16:46:44.505Z,10.90
2018-03-23T16:49:13.249Z,9.32
2018-03-23T16:51:41.109Z,9.48
2018-03-23T16:54:09.745Z,9.63
2018-03-23T16:56:37.196Z,9.73
2018-03-23T16:59:05.399Z,10.77
2018-03-23T17:01:33.185Z,10.93
2018-03-23T17:04:00.691Z,11.00
2018-03-23T17:06:28.224Z,11.02
2018-03-23T17:08:55.774Z,9.98
2018-03-23T17:11:23.279Z,15.80
2018-03-23T17:13:50.764Z,10.98
2018-03-23T17:16:19.262Z,10.43
2018-03-23T17:18:47.111Z,12.32
2018-03-23T17:21:14.550Z,10.60
2018-03-23T17:23:42.033Z,17.87
2018-03-23T17:26:09.493Z,14.85
2018-03-23T17:28:36.989Z,13.40
2018-03-23T17:31:04.424Z,13.45
2018-03-23T17:33:32.120Z,10.90
2018-03-23T17:36:00.400Z,40.75
2018-03-23T17:38:28.856Z,12.57
2018-03-23T17:40:57.633Z,18.95
2018-03-23T17:43:25.113Z,34.47
2018-03-23T17:45:52.523Z,44.75
2018-03-23T17:48:20.021Z,16.08
2018-03-23T17:50:47.466Z,13.93
2018-03-23T17:53:15.270Z,14.80
2018-03-23T17:55:43.616Z,17.02
2018-03-23T17:58:11.271Z,15.63
2018-03-23T18:00:39.361Z,17.80
2018-03-23T18:03:11.592Z,16.08
2018-03-23T18:05:39.085Z,14.23
2018-03-23T18:08:07.779Z,17.62
2018-03-23T18:10:36.163Z,18.27
2018-03-23T18:13:07.357Z,18.60
2018-03-23T18:15:53.213Z,16.10
2018-03-23T18:18:21.416Z,18.45
2018-03-23T18:20:48.900Z,16.52
2018-03-23T18:23:16.336Z,17.15
2018-03-23T18:25:43.792Z,16.17
2018-03-23T18:28:17.552Z,17.50
2018-03-23T18:30:45.141Z,18.15
2018-03-23T18:33:12.572Z,19.48
2018-03-23T18:35:40.830Z,21.52
2018-03-23T18:38:08.320Z,20.58
2018-03-23T18:40:36.591Z,20.92
2018-03-23T18:43:04.814Z,20.58
2018-03-23T18:45:32.267Z,27.67
2018-03-23T18:47:59.811Z,21.10
2018-03-23T18:50:28.264Z,26.83
2018-03-23T18:52:56.462Z,23.33
2018-03-23T18:55:23.929Z,25.25
2018-03-23T18:57:51.385Z,26.00
2018-03-23T19:00:18.872Z,24.12
2018-03-23T19:02:48.300Z,21.83
2018-03-23T19:05:15.915Z,19.58
2018-03-23T19:07:43.539Z,25.55
2018-03-23T19:10:11.767Z,21.42
2018-03-23T19:12:39.216Z,21.02
2018-03-23T19:15:06.793Z,22.52
2018-03-23T19:17:34.209Z,19.30
2018-03-23T19:20:01.680Z,20.02
2018-03-23T19:22:29.890Z,15.50
2018-03-23T19:24:57.382Z,18.10
2018-03-23T19:27:25.597Z,19.17
2018-03-23T19:29:53.250Z,18.52
2018-03-23T19:35:11.472Z,19.52
2018-03-23T19:37:42.476Z,19.45
2018-03-23T19:40:09.950Z,17.45
2018-03-23T19:42:38.155Z,24.55
2018-03-23T19:45:05.597Z,20.98
2018-03-23T19:47:33.161Z,17.20
2018-03-23T19:50:01.371Z,20.85
2018-03-23T19:52:34.825Z,19.85
2018-03-23T19:55:03.660Z,22.35
2018-03-23T19:57:31.766Z,21.98
2018-03-23T19:59:59.192Z,19.60
2018-03-23T20:02:27.152Z,21.40
2018-03-23T20:04:54.602Z,21.80
2018-03-23T20:07:22.048Z,20.70
2018-03-23T20:09:49.525Z,22.33
2018-03-23T20:12:16.997Z,22.08
2018-03-23T20:14:46.417Z,21.45
2018-03-23T20:17:14.096Z,23.55
2018-03-23T20:19:42.314Z,21.65
2018-03-23T20:22:09.797Z,22.13
2018-03-23T20:24:37.381Z,21.02
2018-03-23T20:27:10.595Z,21.23
2018-03-23T20:29:39.940Z,19.05
2018-03-23T20:32:23.256Z,21.12
2018-03-23T20:34:51.961Z,22.65
2018-03-23T20:37:19.445Z,21.12
2018-03-23T20:39:47.704Z,22.37
2018-03-23T20:42:15.143Z,21.40
2018-03-23T20:44:42.609Z,22.33
2018-03-23T20:47:10.166Z,21.30
2018-03-23T20:49:37.576Z,21.62
2018-03-23T20:52:05.045Z,20.98
2018-03-23T20:54:32.486Z,23.40
2018-03-23T20:57:00.720Z,25.08
2018-03-23T20:59:28.161Z,22.37
2018-03-23T21:01:55.608Z,23.85
2018-03-23T21:04:23.613Z,23.27
2018-03-23T21:06:51.041Z,22.10
2018-03-23T21:09:18.484Z,24.80
2018-03-23T21:11:45.960Z,20.65
2018-03-23T21:14:13.428Z,22.23
2018-03-23T21:16:40.861Z,20.88
2018-03-23T21:19:08.396Z,20.48
2018-03-23T21:21:35.968Z,19.55
2018-03-23T21:24:03.437Z,21.30
2018-03-23T21:26:30.879Z,20.85
2018-03-23T21:28:58.457Z,20.02
2018-03-23T21:31:25.864Z,19.42
2018-03-23T21:33:53.304Z,19.67
2018-03-23T21:36:20.905Z,20.40
2018-03-23T21:38:48.379Z,20.48
2018-03-23T21:41:20.597Z,18.75
2018-03-23T21:43:48.404Z,19.65
2018-03-23T21:46:16.596Z,20.73
2018-03-23T21:48:44.032Z,22.73
2018-03-23T21:51:11.689Z,20.20
2018-03-23T21:53:39.184Z,20.02
2018-03-23T21:56:08.632Z,18.58
2018-03-23T21:58:36.104Z,19.90
2018-03-23T22:01:05.448Z,18.37
2018-03-23T22:03:32.896Z,19.92
2018-03-23T22:06:00.381Z,21.25
2018-03-23T22:08:28.735Z,22.58
2018-03-23T22:10:56.168Z,19.62
2018-03-23T22:13:23.669Z,18.52
2018-03-23T22:15:51.095Z,20.12
2018-03-23T22:18:18.548Z,18.52
2018-03-23T22:20:45.995Z,21.02
2018-03-23T22:23:15.784Z,21.60
2018-03-23T22:25:43.216Z,19.95
2018-03-23T22:28:10.672Z,20.50
2018-03-23T22:30:38.157Z,18.90
2018-03-23T22:33:05.596Z,20.85
2018-03-23T22:35:33.038Z,20.67
2018-03-23T22:38:00.524Z,23.17
2018-03-23T22:40:27.985Z,22.35
2018-03-23T22:42:55.425Z,22.70
2018-03-23T22:45:22.926Z,21.92
2018-03-23T22:47:53.113Z,22.02
2018-03-23T22:50:20.554Z,20.02
2018-03-23T22:52:48.060Z,21.83
2018-03-23T22:55:34.173Z,20.92
2018-03-23T22:58:02.916Z,18.52
2018-03-23T23:00:30.432Z,19.85
2018-03-23T23:02:57.936Z,20.85
2018-03-23T23:05:26.264Z,21.98
2018-03-23T23:07:53.704Z,19.10
2018-03-23T23:10:21.327Z,18.73
2018-03-23T23:12:48.774Z,19.67
2018-03-23T23:15:16.224Z,20.98
2018-03-23T23:17:43.725Z,21.85
2018-03-23T23:20:29.953Z,22.08
2018-03-23T23:22:57.464Z,21.20
2018-03-23T23:25:24.901Z,20.80
2018-03-23T23:27:52.345Z,21.65
2018-03-23T23:30:19.904Z,22.02
2018-03-23T23:32:47.608Z,19.08
2018-03-23T23:35:15.815Z,19.50
2018-03-23T23:37:43.302Z,21.00
2018-03-23T23:40:10.741Z,22.83
2018-03-23T23:42:38.208Z,20.50
2018-03-23T23:45:06.416Z,21.77
2018-03-23T23:47:33.882Z,21.83
2018-03-23T23:50:01.330Z,20.65
2018-03-23T23:52:30.786Z,21.83
2018-03-23T23:54:58.217Z,21.05
2018-03-23T23:57:26.444Z,22.65
2018-03-23T23:59:53.889Z,20.40
